createdAt,value
2022-10-16T00:00:49.403Z,16.14
2022-10-16T00:01:49.386Z,16.22
2022-10-16T00:02:49.254Z,16.18
2022-10-16T00:03:49.172Z,16.12
2022-10-16T00:04:49.095Z,16.08
2022-10-16T00:05:49.016Z,16.08
2022-10-16T00:06:48.939Z,16.14
2022-10-16T00:07:48.862Z,16.06
2022-10-16T00:08:48.786Z,16.07
2022-10-16T00:09:48.708Z,15.99
2022-10-16T00:10:48.636Z,15.97
2022-10-16T00:11:48.591Z,15.91
2022-10-16T00:12:48.476Z,15.92
2022-10-16T00:13:48.398Z,15.89
2022-10-16T00:14:48.320Z,15.89
2022-10-16T00:15:48.242Z,15.85
2022-10-16T00:16:48.170Z,15.92
2022-10-16T00:17:48.092Z,15.85
2022-10-16T00:18:48.012Z,15.86
2022-10-16T00:19:47.938Z,15.81
2022-10-16T00:20:47.874Z,15.73
2022-10-16T00:21:47.782Z,15.76
2022-10-16T00:22:47.703Z,15.75
2022-10-16T00:23:47.625Z,15.82
2022-10-16T00:24:47.550Z,15.79
2022-10-16T00:25:47.474Z,15.73
2022-10-16T00:26:47.390Z,15.71
2022-10-16T00:27:47.314Z,15.83
2022-10-16T00:28:47.267Z,15.73
2022-10-16T00:29:47.187Z,15.76
2022-10-16T00:30:47.080Z,15.79
2022-10-16T00:31:47.008Z,15.85
2022-10-16T00:32:46.928Z,15.79
2022-10-16T00:33:46.856Z,15.82
2022-10-16T00:34:46.775Z,15.83
2022-10-16T00:35:46.698Z,15.82
2022-10-16T00:36:46.619Z,15.82
2022-10-16T00:37:46.546Z,15.85
2022-10-16T00:38:46.560Z,15.85
2022-10-16T00:39:46.390Z,15.88
2022-10-16T00:40:46.306Z,15.83
2022-10-16T00:41:46.237Z,15.82
2022-10-16T00:42:46.162Z,15.86
2022-10-16T00:43:46.092Z,15.82
2022-10-16T00:44:45.999Z,15.86
2022-10-16T00:45:45.926Z,15.89
2022-10-16T00:46:45.847Z,15.88
2022-10-16T00:47:45.765Z,15.88
2022-10-16T00:48:45.688Z,15.85
2022-10-16T00:49:45.616Z,15.91
2022-10-16T00:50:45.535Z,15.89
2022-10-16T00:51:45.457Z,15.88
2022-10-16T00:52:45.379Z,15.88
2022-10-16T00:53:45.303Z,15.91
2022-10-16T00:54:45.226Z,15.89
2022-10-16T00:55:45.144Z,15.89
2022-10-16T00:56:45.079Z,15.86
2022-10-16T00:57:45.015Z,15.88
2022-10-16T00:58:44.915Z,15.83
2022-10-16T00:59:44.840Z,15.92
2022-10-16T01:00:44.797Z,15.83
2022-10-16T01:01:44.686Z,15.79
2022-10-16T01:02:44.602Z,15.70
2022-10-16T01:03:44.530Z,15.75
2022-10-16T01:04:44.450Z,15.78
2022-10-16T01:05:44.371Z,15.79
2022-10-16T01:06:44.293Z,15.61
2022-10-16T01:07:44.217Z,15.59
2022-10-16T01:08:44.137Z,15.59
2022-10-16T01:09:44.067Z,15.61
2022-10-16T01:10:43.985Z,15.60
2022-10-16T01:11:43.915Z,15.67
2022-10-16T01:12:46.987Z,15.57
2022-10-16T01:13:43.763Z,15.55
2022-10-16T01:14:43.676Z,15.66
2022-10-16T01:15:43.597Z,15.64
2022-10-16T01:16:43.523Z,15.78
2022-10-16T01:17:43.440Z,15.61
2022-10-16T01:18:43.362Z,15.63
2022-10-16T01:19:43.289Z,15.61
2022-10-16T01:20:43.207Z,15.73
2022-10-16T01:21:43.131Z,15.60
2022-10-16T01:22:43.052Z,15.66
2022-10-16T01:23:42.975Z,15.64
2022-10-16T01:24:42.935Z,15.67
2022-10-16T01:25:42.828Z,15.66
2022-10-16T01:26:42.745Z,15.71
2022-10-16T01:27:42.673Z,15.70
2022-10-16T01:28:42.754Z,15.70
2022-10-16T01:29:42.511Z,15.78
2022-10-16T01:30:42.435Z,15.71
2022-10-16T01:31:42.358Z,15.70
2022-10-16T01:32:42.282Z,15.67
2022-10-16T01:33:42.227Z,15.76
2022-10-16T01:34:42.129Z,15.78
2022-10-16T01:35:42.045Z,15.73
2022-10-16T01:36:41.972Z,15.60
2022-10-16T01:37:41.893Z,15.59
2022-10-16T01:38:41.817Z,15.59
2022-10-16T01:39:41.736Z,15.55
2022-10-16T01:40:41.659Z,15.55
2022-10-16T01:41:41.585Z,15.60
2022-10-16T01:42:41.508Z,15.61
2022-10-16T01:43:41.424Z,15.63
2022-10-16T01:44:41.353Z,15.66
2022-10-16T01:45:41.273Z,15.63
2022-10-16T01:46:41.195Z,15.63
2022-10-16T01:47:41.124Z,15.66
2022-10-16T01:48:41.040Z,15.66
2022-10-16T01:49:40.963Z,15.61
2022-10-16T01:50:40.888Z,15.60
2022-10-16T01:51:40.808Z,15.63
2022-10-16T01:52:40.730Z,15.64
2022-10-16T01:53:40.651Z,15.60
2022-10-16T01:54:40.577Z,15.68
2022-10-16T01:55:40.501Z,15.68
2022-10-16T01:56:40.415Z,15.71
2022-10-16T01:57:40.340Z,15.71
2022-10-16T01:58:40.266Z,15.70
2022-10-16T01:59:40.188Z,15.68
2022-10-16T02:00:40.113Z,15.75
2022-10-16T02:01:40.033Z,15.76
2022-10-16T02:02:39.953Z,15.79
2022-10-16T02:03:39.875Z,15.75
2022-10-16T02:04:39.794Z,15.73
2022-10-16T02:05:39.719Z,15.67
2022-10-16T02:06:39.643Z,15.61
2022-10-16T02:07:39.562Z,15.64
2022-10-16T02:08:39.490Z,15.60
2022-10-16T02:09:39.413Z,15.63
2022-10-16T02:10:39.334Z,15.55
2022-10-16T02:11:39.255Z,15.55
2022-10-16T02:12:39.177Z,15.57
2022-10-16T02:13:39.101Z,15.55
2022-10-16T02:14:39.019Z,15.57
2022-10-16T02:15:38.945Z,15.61
2022-10-16T02:16:38.864Z,15.63
2022-10-16T02:17:38.793Z,15.63
2022-10-16T02:18:38.713Z,15.67
2022-10-16T02:20:38.557Z,15.57
2022-10-16T02:21:38.481Z,15.57
2022-10-16T02:22:38.400Z,15.63
2022-10-16T02:23:38.322Z,15.63
2022-10-16T02:24:38.246Z,15.63
2022-10-16T02:25:38.167Z,15.57
2022-10-16T02:26:38.103Z,15.67
2022-10-16T02:27:38.018Z,15.64
2022-10-16T02:28:37.986Z,15.63
2022-10-16T02:29:37.856Z,15.59
2022-10-16T02:30:37.777Z,15.67
2022-10-16T02:31:37.701Z,15.63
2022-10-16T02:32:37.629Z,15.76
2022-10-16T02:33:37.550Z,15.73
2022-10-16T02:34:37.469Z,15.59
2022-10-16T02:35:37.391Z,15.78
2022-10-16T02:36:37.315Z,15.71
2022-10-16T02:37:37.306Z,15.70
2022-10-16T02:38:37.170Z,15.67
2022-10-16T02:39:37.084Z,15.70
2022-10-16T02:40:37.002Z,15.75
2022-10-16T02:41:36.930Z,15.75
2022-10-16T02:42:36.851Z,15.76
2022-10-16T02:43:36.772Z,15.71
2022-10-16T02:44:36.694Z,15.82
2022-10-16T02:45:36.618Z,15.73
2022-10-16T02:46:36.540Z,15.79
2022-10-16T02:47:36.491Z,15.81
2022-10-16T02:48:36.387Z,15.82
2022-10-16T02:49:36.310Z,15.85
2022-10-16T02:50:36.226Z,15.76
2022-10-16T02:51:36.150Z,15.71
2022-10-16T02:52:36.081Z,15.73
2022-10-16T02:53:35.994Z,15.71
2022-10-16T02:54:35.919Z,15.73
2022-10-16T02:55:35.850Z,15.76
2022-10-16T02:56:35.759Z,15.76
2022-10-16T02:57:35.694Z,15.81
2022-10-16T02:58:35.605Z,15.71
2022-10-16T02:59:35.540Z,15.82
2022-10-16T03:00:35.454Z,15.78
2022-10-16T03:01:36.848Z,15.79
2022-10-16T03:02:35.296Z,15.81
2022-10-16T03:03:35.224Z,15.73
2022-10-16T03:04:35.147Z,15.82
2022-10-16T03:05:35.065Z,15.79
2022-10-16T03:06:34.988Z,15.85
2022-10-16T03:07:34.908Z,15.78
2022-10-16T03:08:34.829Z,15.85
2022-10-16T03:09:34.805Z,15.75
2022-10-16T03:10:34.673Z,15.88
2022-10-16T03:11:34.596Z,15.89
2022-10-16T03:12:34.518Z,15.89
2022-10-16T03:13:34.448Z,15.88
2022-10-16T03:14:34.367Z,15.83
2022-10-16T03:15:34.287Z,15.83
2022-10-16T03:16:34.211Z,15.85
2022-10-16T03:17:34.133Z,15.78
2022-10-16T03:18:34.062Z,15.82
2022-10-16T03:19:33.980Z,15.82
2022-10-16T03:20:33.915Z,15.89
2022-10-16T03:21:33.827Z,15.83
2022-10-16T03:22:33.744Z,15.88
2022-10-16T03:23:33.669Z,15.88
2022-10-16T03:24:33.592Z,15.85
2022-10-16T03:25:33.514Z,15.88
2022-10-16T03:26:33.436Z,15.94
2022-10-16T03:27:33.358Z,15.97
2022-10-16T03:28:33.334Z,15.89
2022-10-16T03:29:33.199Z,15.92
2022-10-16T03:30:33.128Z,15.91
2022-10-16T03:31:33.047Z,15.89
2022-10-16T03:32:33.071Z,15.86
2022-10-16T03:33:32.895Z,15.85
2022-10-16T03:34:32.816Z,15.92
2022-10-16T03:35:32.735Z,15.85
2022-10-16T03:36:32.662Z,15.91
2022-10-16T03:37:32.579Z,15.86
2022-10-16T03:38:32.507Z,15.96
2022-10-16T03:39:32.425Z,15.88
2022-10-16T03:40:32.354Z,15.92
2022-10-16T03:41:32.269Z,15.88
2022-10-16T03:42:32.196Z,15.91
2022-10-16T03:43:32.116Z,15.91
2022-10-16T03:44:32.036Z,15.96
2022-10-16T03:45:31.961Z,16.01
2022-10-16T03:46:31.890Z,15.99
2022-10-16T03:47:31.805Z,15.91
2022-10-16T03:48:31.728Z,16.01
2022-10-16T03:49:31.651Z,15.94
2022-10-16T03:50:31.574Z,15.97
2022-10-16T03:51:31.496Z,15.91
2022-10-16T03:52:31.436Z,15.89
2022-10-16T03:53:31.340Z,15.89
2022-10-16T03:54:31.264Z,15.88
2022-10-16T03:55:31.192Z,15.83
2022-10-16T03:56:31.110Z,15.89
2022-10-16T03:57:31.034Z,15.88
2022-10-16T03:58:30.953Z,15.88
2022-10-16T03:59:30.879Z,15.89
2022-10-16T04:00:30.798Z,15.88
2022-10-16T04:01:30.722Z,15.82
2022-10-16T04:02:30.649Z,15.81
2022-10-16T04:03:30.565Z,15.76
2022-10-16T04:04:30.489Z,15.76
2022-10-16T04:05:30.410Z,15.70
2022-10-16T04:06:30.333Z,15.73
2022-10-16T04:07:30.254Z,15.71
2022-10-16T04:08:30.176Z,15.68
2022-10-16T04:09:30.102Z,15.75
2022-10-16T04:10:30.028Z,15.68
2022-10-16T04:11:29.943Z,15.75
2022-10-16T04:12:29.866Z,15.70
2022-10-16T04:13:29.789Z,15.73
2022-10-16T04:14:29.719Z,15.63
2022-10-16T04:15:29.633Z,15.67
2022-10-16T04:16:29.565Z,15.61
2022-10-16T04:17:29.625Z,15.78
2022-10-16T04:18:29.401Z,15.76
2022-10-16T04:19:29.323Z,15.75
2022-10-16T04:20:29.279Z,15.70
2022-10-16T04:21:29.169Z,15.71
2022-10-16T04:22:29.133Z,15.70
2022-10-16T04:23:29.011Z,15.73
2022-10-16T04:24:28.943Z,15.81
2022-10-16T04:25:28.858Z,15.68
2022-10-16T04:26:28.784Z,15.75
2022-10-16T04:27:29.195Z,15.75
2022-10-16T04:28:28.654Z,15.75
2022-10-16T04:29:28.554Z,15.73
2022-10-16T04:30:28.475Z,15.67
2022-10-16T04:31:28.423Z,15.76
2022-10-16T04:32:28.320Z,15.81
2022-10-16T04:33:28.239Z,15.82
2022-10-16T04:34:28.161Z,15.88
2022-10-16T04:35:28.088Z,15.86
2022-10-16T04:36:29.266Z,15.86
2022-10-16T04:37:28.254Z,15.86
2022-10-16T04:38:27.857Z,15.89
2022-10-16T04:39:27.773Z,15.91
2022-10-16T04:40:27.699Z,15.91
2022-10-16T04:41:27.620Z,15.86
2022-10-16T04:42:27.542Z,15.89
2022-10-16T04:44:27.393Z,15.89
2022-10-16T04:45:27.336Z,15.88
2022-10-16T04:46:27.230Z,15.86
2022-10-16T04:47:27.455Z,15.83
2022-10-16T04:48:27.076Z,15.83
2022-10-16T04:49:27.000Z,15.85
2022-10-16T04:50:26.921Z,15.83
2022-10-16T04:51:26.840Z,15.82
2022-10-16T04:52:26.828Z,15.76
2022-10-16T04:53:26.687Z,15.78
2022-10-16T04:54:26.613Z,15.76
2022-10-16T04:55:26.537Z,15.75
2022-10-16T04:56:26.460Z,15.76
2022-10-16T04:57:26.605Z,15.76
2022-10-16T04:58:26.308Z,15.60
2022-10-16T04:59:26.220Z,15.55
2022-10-16T05:00:26.152Z,15.60
2022-10-16T05:01:26.065Z,15.49
2022-10-16T05:02:26.013Z,15.59
2022-10-16T05:03:25.958Z,15.57
2022-10-16T05:04:25.841Z,15.59
2022-10-16T05:05:25.757Z,15.60
2022-10-16T05:06:25.684Z,15.60
2022-10-16T05:07:25.888Z,15.61
2022-10-16T05:08:25.525Z,15.63
2022-10-16T05:09:25.445Z,15.63
2022-10-16T05:10:25.378Z,15.63
2022-10-16T05:11:25.293Z,15.63
2022-10-16T05:12:25.219Z,15.61
2022-10-16T05:13:25.137Z,15.61
2022-10-16T05:14:25.063Z,15.64
2022-10-16T05:15:24.984Z,15.67
2022-10-16T05:16:24.909Z,15.68
2022-10-16T05:17:25.267Z,15.73
2022-10-16T05:18:24.751Z,15.70
2022-10-16T05:19:28.971Z,15.78
2022-10-16T05:20:24.598Z,15.66
2022-10-16T05:21:24.515Z,15.61
2022-10-16T05:22:24.441Z,15.61
2022-10-16T05:23:24.363Z,15.63
2022-10-16T05:24:24.285Z,15.60
2022-10-16T05:25:24.210Z,15.57
2022-10-16T05:26:24.133Z,15.55
2022-10-16T05:27:24.379Z,15.49
2022-10-16T05:28:24.062Z,15.51
2022-10-16T05:29:23.897Z,15.48
2022-10-16T05:30:23.835Z,15.55
2022-10-16T05:31:23.740Z,15.45
2022-10-16T05:32:23.666Z,15.53
2022-10-16T05:33:23.585Z,15.51
2022-10-16T05:34:23.511Z,15.45
2022-10-16T05:35:23.435Z,15.42
2022-10-16T05:36:23.353Z,15.55
2022-10-16T05:37:23.646Z,15.55
2022-10-16T05:38:23.200Z,15.45
2022-10-16T05:39:23.123Z,15.49
2022-10-16T05:40:23.048Z,15.49
2022-10-16T05:41:22.965Z,15.49
2022-10-16T05:42:22.894Z,15.57
2022-10-16T05:43:22.809Z,15.60
2022-10-16T05:44:22.773Z,15.49
2022-10-16T05:45:22.654Z,15.53
2022-10-16T05:46:22.578Z,15.48
2022-10-16T05:47:22.499Z,15.49
2022-10-16T05:48:22.424Z,15.57
2022-10-16T05:49:22.343Z,15.46
2022-10-16T05:50:22.267Z,15.43
2022-10-16T05:51:22.193Z,15.39
2022-10-16T05:52:22.113Z,15.38
2022-10-16T05:53:22.031Z,15.42
2022-10-16T05:54:21.956Z,15.49
2022-10-16T05:55:21.879Z,15.42
2022-10-16T05:56:21.804Z,15.46
2022-10-16T05:57:21.756Z,15.51
2022-10-16T05:58:21.653Z,15.43
2022-10-16T05:59:21.565Z,15.48
2022-10-16T06:00:21.497Z,15.34
2022-10-16T06:01:21.524Z,15.43
2022-10-16T06:02:21.337Z,15.49
2022-10-16T06:03:21.254Z,15.46
2022-10-16T06:04:21.186Z,15.57
2022-10-16T06:05:21.104Z,15.55
2022-10-16T06:06:21.029Z,15.49
2022-10-16T06:07:20.945Z,15.53
2022-10-16T06:08:20.871Z,15.43
2022-10-16T06:09:20.790Z,15.60
2022-10-16T06:10:20.716Z,15.61
2022-10-16T06:11:20.635Z,15.60
2022-10-16T06:12:20.558Z,15.63
2022-10-16T06:13:20.484Z,15.63
2022-10-16T06:14:20.404Z,15.61
2022-10-16T06:15:20.328Z,15.60
2022-10-16T06:16:20.251Z,15.60
2022-10-16T06:17:20.168Z,15.61
2022-10-16T06:18:20.094Z,15.55
2022-10-16T06:19:20.021Z,15.60
2022-10-16T06:20:19.940Z,15.61
2022-10-16T06:21:19.858Z,15.63
2022-10-16T06:22:19.788Z,15.61
2022-10-16T06:23:19.716Z,15.63
2022-10-16T06:24:19.629Z,15.64
2022-10-16T06:25:19.561Z,15.67
2022-10-16T06:26:19.473Z,15.63
2022-10-16T06:27:19.391Z,15.66
2022-10-16T06:28:19.404Z,15.63
2022-10-16T06:29:19.241Z,15.63
2022-10-16T06:30:19.161Z,15.75
2022-10-16T06:31:19.085Z,15.70
2022-10-16T06:32:19.005Z,15.73
2022-10-16T06:33:18.933Z,15.71
2022-10-16T06:34:18.854Z,15.78
2022-10-16T06:35:18.774Z,15.71
2022-10-16T06:36:18.695Z,15.76
2022-10-16T06:37:18.621Z,15.85
2022-10-16T06:38:18.543Z,15.78
2022-10-16T06:39:18.461Z,15.85
2022-10-16T06:40:18.390Z,15.85
2022-10-16T06:41:18.309Z,15.86
2022-10-16T06:42:18.233Z,15.89
2022-10-16T06:43:18.149Z,15.88
2022-10-16T06:44:18.074Z,15.91
2022-10-16T06:45:17.998Z,15.88
2022-10-16T06:46:17.924Z,15.89
2022-10-16T06:47:17.844Z,15.88
2022-10-16T06:48:17.772Z,15.92
2022-10-16T06:49:17.686Z,15.91
2022-10-16T06:50:17.610Z,15.92
2022-10-16T06:51:17.530Z,16.01
2022-10-16T06:52:17.458Z,15.85
2022-10-16T06:53:17.375Z,15.89
2022-10-16T06:54:17.299Z,15.92
2022-10-16T06:55:17.231Z,15.88
2022-10-16T06:56:17.144Z,15.89
2022-10-16T06:57:17.066Z,15.91
2022-10-16T06:58:16.995Z,15.94
2022-10-16T06:59:16.915Z,15.94
2022-10-16T07:00:16.849Z,15.89
2022-10-16T07:01:16.754Z,15.89
2022-10-16T07:02:16.684Z,15.94
2022-10-16T07:03:16.604Z,16.01
2022-10-16T07:04:16.529Z,16.01
2022-10-16T07:05:16.448Z,15.94
2022-10-16T07:06:16.372Z,15.99
2022-10-16T07:07:16.292Z,15.91
2022-10-16T07:08:16.212Z,16.01
2022-10-16T07:09:16.135Z,16.01
2022-10-16T07:10:16.060Z,16.03
2022-10-16T07:11:15.988Z,16.03
2022-10-16T07:12:15.903Z,16.12
2022-10-16T07:13:15.825Z,16.15
2022-10-16T07:14:15.815Z,16.10
2022-10-16T07:15:15.668Z,16.16
2022-10-16T07:16:15.594Z,16.10
2022-10-16T07:17:15.513Z,16.08
2022-10-16T07:18:15.441Z,16.16
2022-10-16T07:19:15.362Z,16.15
2022-10-16T07:20:15.286Z,16.15
2022-10-16T07:21:15.215Z,16.25
2022-10-16T07:22:15.130Z,16.22
2022-10-16T07:23:15.050Z,16.26
2022-10-16T07:24:14.975Z,16.27
2022-10-16T07:25:14.899Z,16.29
2022-10-16T07:26:14.817Z,16.30
2022-10-16T07:27:14.749Z,16.30
2022-10-16T07:28:14.667Z,16.38
2022-10-16T07:29:14.593Z,16.25
2022-10-16T07:30:14.513Z,16.37
2022-10-16T07:31:14.437Z,16.25
2022-10-16T07:32:14.352Z,16.22
2022-10-16T07:33:14.281Z,16.30
2022-10-16T07:34:14.201Z,16.34
2022-10-16T07:35:14.125Z,16.33
2022-10-16T07:36:16.247Z,16.37
2022-10-16T07:37:13.966Z,16.33
2022-10-16T07:38:13.886Z,16.37
2022-10-16T07:39:13.812Z,16.40
2022-10-16T07:40:13.735Z,16.34
2022-10-16T07:41:13.660Z,16.35
2022-10-16T07:42:13.578Z,16.30
2022-10-16T07:43:13.504Z,16.34
2022-10-16T07:44:13.425Z,16.27
2022-10-16T07:45:13.364Z,16.33
2022-10-16T07:46:13.273Z,16.38
2022-10-16T07:47:13.215Z,16.34
2022-10-16T07:48:13.117Z,16.44
2022-10-16T07:49:13.039Z,16.35
2022-10-16T07:50:12.964Z,16.41
2022-10-16T07:51:12.885Z,16.30
2022-10-16T07:52:12.805Z,16.37
2022-10-16T07:53:12.731Z,16.33
2022-10-16T07:54:12.708Z,16.35
2022-10-16T07:55:12.575Z,16.34
2022-10-16T07:56:12.495Z,16.35
2022-10-16T07:57:12.424Z,16.41
2022-10-16T07:58:12.341Z,16.38
2022-10-16T07:59:12.264Z,16.38
2022-10-16T08:00:12.190Z,16.38
2022-10-16T08:01:12.171Z,16.37
2022-10-16T08:02:12.033Z,16.35
2022-10-16T08:03:11.956Z,16.33
2022-10-16T08:04:11.941Z,16.35
2022-10-16T08:05:11.800Z,16.40
2022-10-16T08:06:11.722Z,16.40
2022-10-16T08:07:11.648Z,16.35
2022-10-16T08:08:11.573Z,16.34
2022-10-16T08:09:11.493Z,16.35
2022-10-16T08:10:11.414Z,16.40
2022-10-16T08:11:11.336Z,16.41
2022-10-16T08:12:11.258Z,16.42
2022-10-16T08:13:11.187Z,16.50
2022-10-16T08:14:11.199Z,16.48
2022-10-16T08:15:11.028Z,16.53
2022-10-16T08:16:10.953Z,16.56
2022-10-16T08:17:10.880Z,16.59
2022-10-16T08:18:10.794Z,16.60
2022-10-16T08:19:10.719Z,16.62
2022-10-16T08:20:10.638Z,16.57
2022-10-16T08:21:10.563Z,16.65
2022-10-16T08:22:10.505Z,16.62
2022-10-16T08:23:10.414Z,16.62
2022-10-16T08:24:10.382Z,16.70
2022-10-16T08:25:10.256Z,16.65
2022-10-16T08:26:10.179Z,16.77
2022-10-16T08:27:10.100Z,16.80
2022-10-16T08:28:10.018Z,16.74
2022-10-16T08:29:10.016Z,16.81
2022-10-16T08:30:09.867Z,16.85
2022-10-16T08:31:09.819Z,16.85
2022-10-16T08:32:09.712Z,16.88
2022-10-16T08:33:09.637Z,16.81
2022-10-16T08:34:09.559Z,16.84
2022-10-16T08:35:09.481Z,16.96
2022-10-16T08:36:09.401Z,16.96
2022-10-16T08:37:09.326Z,17.11
2022-10-16T08:38:09.248Z,17.13
2022-10-16T08:39:09.180Z,17.21
2022-10-16T08:40:09.101Z,17.26
2022-10-16T08:41:09.018Z,17.26
2022-10-16T08:42:08.941Z,17.29
2022-10-16T08:43:08.865Z,17.46
2022-10-16T08:44:08.791Z,17.57
2022-10-16T08:45:08.715Z,17.55
2022-10-16T08:46:08.632Z,17.67
2022-10-16T08:47:08.555Z,17.58
2022-10-16T08:48:08.480Z,17.63
2022-10-16T08:49:08.403Z,17.67
2022-10-16T08:50:08.325Z,17.70
2022-10-16T08:51:08.251Z,17.69
2022-10-16T08:52:08.172Z,17.76
2022-10-16T08:53:08.100Z,17.67
2022-10-16T08:54:08.018Z,17.66
2022-10-16T08:55:07.940Z,17.71
2022-10-16T08:56:07.866Z,17.70
2022-10-16T08:57:07.807Z,17.71
2022-10-16T08:58:07.715Z,17.74
2022-10-16T08:59:07.633Z,17.71
2022-10-16T09:00:07.558Z,17.71
2022-10-16T09:01:07.557Z,17.77
2022-10-16T09:02:07.405Z,17.77
2022-10-16T09:03:07.331Z,17.76
2022-10-16T09:04:07.253Z,17.73
2022-10-16T09:05:07.181Z,17.79
2022-10-16T09:06:07.098Z,17.85
2022-10-16T09:07:07.018Z,17.95
2022-10-16T09:08:10.648Z,18.02
2022-10-16T09:09:06.867Z,18.04
2022-10-16T09:10:06.799Z,18.02
2022-10-16T09:11:06.715Z,18.18
2022-10-16T09:12:06.639Z,18.11
2022-10-16T09:13:06.559Z,18.11
2022-10-16T09:14:06.484Z,18.10
2022-10-16T09:15:06.409Z,18.22
2022-10-16T09:16:06.331Z,18.28
2022-10-16T09:17:06.341Z,18.27
2022-10-16T09:18:06.183Z,18.35
2022-10-16T09:19:06.103Z,18.27
2022-10-16T09:20:06.030Z,18.27
2022-10-16T09:21:05.949Z,18.28
2022-10-16T09:22:05.873Z,18.31
2022-10-16T09:23:05.794Z,18.34
2022-10-16T09:24:05.719Z,18.39
2022-10-16T09:25:05.648Z,18.35
2022-10-16T09:26:05.563Z,18.32
2022-10-16T09:27:05.492Z,18.32
2022-10-16T09:28:05.421Z,18.37
2022-10-16T09:29:05.451Z,18.32
2022-10-16T09:30:05.261Z,18.35
2022-10-16T09:31:05.183Z,18.37
2022-10-16T09:32:05.114Z,18.32
2022-10-16T09:33:05.033Z,18.34
2022-10-16T09:34:04.957Z,18.34
2022-10-16T09:35:04.876Z,18.31
2022-10-16T09:36:04.800Z,18.29
2022-10-16T09:37:04.723Z,18.31
2022-10-16T09:38:04.650Z,18.28
2022-10-16T09:39:04.571Z,18.35
2022-10-16T09:40:07.474Z,18.31
2022-10-16T09:41:04.423Z,18.27
2022-10-16T09:42:04.344Z,18.29
2022-10-16T09:43:04.270Z,18.39
2022-10-16T09:44:04.191Z,18.40
2022-10-16T09:45:04.116Z,18.47
2022-10-16T09:46:04.034Z,18.42
2022-10-16T09:47:03.963Z,18.39
2022-10-16T09:48:03.890Z,18.44
2022-10-16T09:49:03.809Z,18.53
2022-10-16T09:50:03.737Z,18.57
2022-10-16T09:51:03.655Z,18.64
2022-10-16T09:52:03.580Z,18.59
2022-10-16T09:53:03.507Z,18.68
2022-10-16T09:54:03.429Z,18.67
2022-10-16T09:55:03.357Z,18.64
2022-10-16T09:56:03.272Z,18.68
2022-10-16T09:57:03.197Z,18.68
2022-10-16T09:58:03.122Z,18.82
2022-10-16T09:59:03.046Z,18.80
2022-10-16T10:00:02.975Z,18.89
2022-10-16T10:01:02.893Z,18.97
2022-10-16T10:02:02.823Z,18.94
2022-10-16T10:03:02.747Z,19.01
2022-10-16T10:04:02.664Z,19.05
2022-10-16T10:05:02.588Z,19.02
2022-10-16T10:06:02.515Z,19.20
2022-10-16T10:07:02.438Z,19.18
2022-10-16T10:08:02.388Z,19.20
2022-10-16T10:09:02.284Z,19.25
2022-10-16T10:10:02.207Z,19.27
2022-10-16T10:11:02.136Z,19.27
2022-10-16T10:13:01.984Z,19.32
2022-10-16T10:14:01.907Z,19.39
2022-10-16T10:15:01.827Z,19.45
2022-10-16T10:16:01.755Z,19.51
2022-10-16T10:17:01.679Z,19.50
2022-10-16T10:18:01.605Z,19.51
2022-10-16T10:19:01.548Z,19.53
2022-10-16T10:20:01.449Z,19.61
2022-10-16T10:21:01.543Z,19.69
2022-10-16T10:22:01.298Z,19.54
2022-10-16T10:23:01.237Z,19.68
2022-10-16T10:24:01.144Z,19.58
2022-10-16T10:25:01.071Z,19.69
2022-10-16T10:26:00.995Z,19.80
2022-10-16T10:27:00.922Z,19.75
2022-10-16T10:28:00.847Z,19.79
2022-10-16T10:29:00.816Z,19.91
2022-10-16T10:30:00.695Z,19.90
2022-10-16T10:31:00.619Z,19.90
2022-10-16T10:32:00.547Z,19.78
2022-10-16T10:33:00.466Z,19.94
2022-10-16T10:34:00.390Z,19.86
2022-10-16T10:35:00.313Z,19.91
2022-10-16T10:36:00.241Z,19.94
2022-10-16T10:37:00.165Z,19.94
2022-10-16T10:38:00.098Z,20.00
2022-10-16T10:39:00.015Z,19.93
2022-10-16T10:39:59.936Z,20.00
2022-10-16T10:40:59.862Z,20.01
2022-10-16T10:41:59.788Z,20.05
2022-10-16T10:42:59.718Z,20.24
2022-10-16T10:43:59.636Z,20.26
2022-10-16T10:44:59.560Z,20.46
2022-10-16T10:45:59.485Z,20.50
2022-10-16T10:46:59.409Z,20.47
2022-10-16T10:47:59.333Z,20.51
2022-10-16T10:48:59.260Z,20.54
2022-10-16T10:49:59.184Z,20.57
2022-10-16T10:50:59.107Z,20.59
2022-10-16T10:51:59.035Z,20.64
2022-10-16T10:52:58.958Z,20.64
2022-10-16T10:53:58.885Z,20.56
2022-10-16T10:54:58.812Z,20.50
2022-10-16T10:55:58.731Z,20.57
2022-10-16T10:56:58.661Z,20.51
2022-10-16T10:57:58.585Z,20.59
2022-10-16T10:58:58.508Z,20.53
2022-10-16T10:59:58.430Z,20.50
2022-10-16T11:00:58.364Z,20.54
2022-10-16T11:01:58.333Z,20.50
2022-10-16T11:02:58.216Z,20.56
2022-10-16T11:03:58.653Z,20.51
2022-10-16T11:04:58.062Z,20.56
2022-10-16T11:05:57.981Z,20.53
2022-10-16T11:06:57.908Z,20.56
2022-10-16T11:07:57.834Z,20.56
2022-10-16T11:09:00.627Z,20.57
2022-10-16T11:09:57.683Z,20.50
2022-10-16T11:10:57.615Z,20.59
2022-10-16T11:11:57.533Z,20.62
2022-10-16T11:12:57.464Z,20.68
2022-10-16T11:13:57.384Z,20.49
2022-10-16T11:14:57.314Z,20.61
2022-10-16T11:15:57.239Z,20.54
2022-10-16T11:16:57.160Z,20.56
2022-10-16T11:17:57.087Z,20.64
2022-10-16T11:18:57.011Z,20.53
2022-10-16T11:19:56.934Z,20.56
2022-10-16T11:20:56.862Z,20.69
2022-10-16T11:21:56.786Z,20.62
2022-10-16T11:22:56.712Z,20.71
2022-10-16T11:23:56.635Z,20.74
2022-10-16T11:24:56.588Z,20.79
2022-10-16T11:25:56.487Z,20.74
2022-10-16T11:26:56.410Z,20.86
2022-10-16T11:27:56.339Z,20.79
2022-10-16T11:28:56.325Z,20.90
2022-10-16T11:29:56.187Z,20.86
2022-10-16T11:30:56.111Z,20.94
2022-10-16T11:31:56.039Z,21.02
2022-10-16T11:32:55.963Z,21.04
2022-10-16T11:33:55.960Z,21.11
2022-10-16T11:34:55.815Z,21.02
2022-10-16T11:35:55.746Z,21.16
2022-10-16T11:36:55.662Z,21.17
2022-10-16T11:37:55.602Z,21.26
2022-10-16T11:38:55.519Z,21.19
2022-10-16T11:39:55.439Z,21.31
2022-10-16T11:40:55.379Z,21.26
2022-10-16T11:41:55.293Z,21.33
2022-10-16T11:42:55.220Z,21.44
2022-10-16T11:43:55.145Z,21.45
2022-10-16T11:44:55.071Z,21.38
2022-10-16T11:45:54.998Z,21.59
2022-10-16T11:46:59.389Z,21.64
2022-10-16T11:47:59.193Z,21.63
2022-10-16T11:48:54.770Z,21.67
2022-10-16T11:49:54.693Z,21.86
2022-10-16T11:50:54.619Z,22.04
2022-10-16T11:51:54.552Z,22.07
2022-10-16T11:52:54.476Z,22.17
2022-10-16T11:53:54.399Z,22.22
2022-10-16T11:54:54.325Z,22.35
2022-10-16T11:55:54.254Z,22.35
2022-10-16T11:56:54.178Z,22.44
2022-10-16T11:57:54.109Z,22.50
2022-10-16T11:58:54.030Z,22.30
2022-10-16T11:59:53.955Z,22.35
2022-10-16T12:00:53.886Z,22.23
2022-10-16T12:01:53.812Z,22.16
2022-10-16T12:02:53.736Z,22.15
2022-10-16T12:03:53.683Z,22.15
2022-10-16T12:04:53.590Z,22.15
2022-10-16T12:05:53.518Z,22.26
2022-10-16T12:06:53.444Z,22.32
2022-10-16T12:07:53.367Z,22.44
2022-10-16T12:08:53.295Z,22.49
2022-10-16T12:09:53.220Z,22.59
2022-10-16T12:10:53.146Z,22.65
2022-10-16T12:11:53.070Z,22.59
2022-10-16T12:12:53.000Z,22.54
2022-10-16T12:13:52.934Z,22.65
2022-10-16T12:15:14.731Z,22.79
2022-10-16T12:15:59.065Z,22.84
2022-10-16T12:16:52.707Z,22.92
2022-10-16T12:17:52.630Z,22.99
2022-10-16T12:18:52.560Z,23.02
2022-10-16T12:20:52.409Z,22.97
2022-10-16T12:21:52.337Z,22.93
2022-10-16T12:22:52.264Z,22.86
2022-10-16T12:23:52.193Z,22.81
2022-10-16T12:24:52.118Z,22.63
2022-10-16T12:25:52.052Z,22.71
2022-10-16T12:26:51.974Z,22.54
2022-10-16T12:27:51.901Z,22.44
2022-10-16T12:28:51.922Z,22.22
2022-10-16T12:29:51.754Z,22.22
2022-10-16T12:30:51.680Z,22.22
2022-10-16T12:31:57.576Z,22.20
2022-10-16T12:32:51.819Z,22.20
2022-10-16T12:33:51.464Z,22.20
2022-10-16T12:34:51.390Z,22.15
2022-10-16T12:35:51.319Z,22.16
2022-10-16T12:36:51.238Z,22.10
2022-10-16T12:37:51.169Z,22.08
2022-10-16T12:38:51.095Z,22.08
2022-10-16T12:39:51.026Z,22.08
2022-10-16T12:40:50.949Z,22.02
2022-10-16T12:41:50.878Z,22.04
2022-10-16T12:42:50.801Z,22.12
2022-10-16T12:43:50.731Z,22.10
2022-10-16T12:44:50.654Z,22.16
2022-10-16T12:45:50.593Z,22.13
2022-10-16T12:46:50.510Z,22.04
2022-10-16T12:47:50.436Z,22.10
2022-10-16T12:49:06.055Z,22.15
2022-10-16T12:49:50.289Z,22.01
2022-10-16T12:50:50.219Z,22.04
2022-10-16T12:51:50.145Z,22.05
2022-10-16T12:52:50.069Z,22.02
2022-10-16T12:53:49.996Z,22.10
2022-10-16T12:54:49.922Z,22.05
2022-10-16T12:55:49.848Z,22.07